createdAt,value
2022-08-18T00:01:53.360Z,619.6
2022-08-18T00:06:10.611Z,619.4
2022-08-18T00:07:13.095Z,620.1
2022-08-18T00:08:15.030Z,620.1
2022-08-18T00:09:16.679Z,620
2022-08-18T00:10:20.590Z,620.4
2022-08-18T00:11:22.787Z,620.5
2022-08-18T00:12:25.268Z,620.6
2022-08-18T00:13:27.200Z,620.6
2022-08-18T00:14:29.113Z,620.4
2022-08-18T00:15:31.568Z,621
2022-08-18T00:16:37.972Z,621.2
2022-08-18T00:17:40.470Z,620.6
2022-08-18T00:18:42.678Z,620.5
2022-08-18T00:20:49.894Z,620.5
2022-08-18T00:21:52.293Z,620.3
2022-08-18T00:22:54.919Z,620.3
2022-08-18T00:23:57.102Z,620.2
2022-08-18T00:24:59.585Z,620.2
2022-08-18T00:26:01.646Z,620.2
2022-08-18T00:27:03.850Z,620.5
2022-08-18T00:28:06.344Z,620.7
2022-08-18T00:29:08.299Z,620.6
2022-08-18T00:30:10.217Z,621
2022-08-18T00:31:12.425Z,620.5
2022-08-18T00:32:14.357Z,620.1
2022-08-18T00:33:17.315Z,620.1
2022-08-18T00:34:19.798Z,620.1
2022-08-18T00:35:22.014Z,620.1
2022-08-18T00:36:24.213Z,619.8
2022-08-18T00:37:26.691Z,620.3
2022-08-18T00:38:29.168Z,620.4
2022-08-18T00:41:41.359Z,620.3
2022-08-18T00:42:43.563Z,620.3
2022-08-18T00:43:45.504Z,620.3
2022-08-18T00:44:47.992Z,620.8
2022-08-18T00:45:49.921Z,621.1
2022-08-18T00:46:51.856Z,622
2022-08-18T00:47:55.567Z,622.1
2022-08-18T00:48:58.053Z,622.3
2022-08-18T00:50:00.012Z,622.6
2022-08-18T00:51:01.641Z,622.9
2022-08-18T00:52:04.128Z,623.2
2022-08-18T00:53:06.610Z,623.1
2022-08-18T00:54:08.824Z,622.7
2022-08-18T00:55:11.295Z,622.7
2022-08-18T00:56:13.503Z,622.5
2022-08-18T00:57:15.406Z,622.3
2022-08-18T00:58:17.047Z,621.4
2022-08-18T00:59:18.980Z,620.8
2022-08-18T01:00:21.469Z,620.1
2022-08-18T01:01:24.379Z,619.5
2022-08-18T01:02:26.659Z,618.9
2022-08-18T01:03:28.574Z,618.3
2022-08-18T01:04:30.790Z,618.6
2022-08-18T01:05:33.274Z,619
2022-08-18T01:06:35.495Z,619.1
2022-08-18T01:07:37.699Z,619.5
2022-08-18T01:09:44.895Z,620.2
2022-08-18T01:10:46.819Z,620
2022-08-18T01:11:49.025Z,620.6
2022-08-18T01:12:51.237Z,620.4
2022-08-18T01:13:53.435Z,620
2022-08-18T01:14:55.364Z,619.9
2022-08-18T01:15:57.595Z,619.2
2022-08-18T01:17:00.108Z,618.7
2022-08-18T01:18:02.321Z,618.8
2022-08-18T01:19:04.791Z,618.6
2022-08-18T01:20:06.756Z,618
2022-08-18T01:21:09.238Z,617.8
2022-08-18T01:22:11.447Z,618.2
2022-08-18T01:23:13.933Z,618.4
2022-08-18T01:26:27.348Z,619.3
2022-08-18T01:27:28.990Z,619.2
2022-08-18T01:28:31.193Z,619.4
2022-08-18T01:29:33.103Z,619.4
2022-08-18T01:30:35.037Z,619.4
2022-08-18T01:31:37.247Z,619.4
2022-08-18T01:32:39.172Z,619.5
2022-08-18T01:33:43.475Z,619.6
2022-08-18T01:34:45.674Z,619.1
2022-08-18T01:35:48.152Z,619
2022-08-18T01:36:50.347Z,618.8
2022-08-18T01:37:53.800Z,618.8
2022-08-18T01:38:56.002Z,618.9
2022-08-18T01:42:08.846Z,619.8
2022-08-18T01:43:11.085Z,620.5
2022-08-18T01:44:13.075Z,621.1
2022-08-18T01:45:14.999Z,621
2022-08-18T01:47:22.197Z,621.2
2022-08-18T01:48:24.667Z,621.5
2022-08-18T01:49:26.869Z,621.8
2022-08-18T01:50:29.347Z,621.8
2022-08-18T01:52:36.267Z,622.1
2022-08-18T01:53:38.465Z,622.2
2022-08-18T01:55:45.690Z,622.4
2022-08-18T01:56:47.888Z,622.7
2022-08-18T01:57:51.530Z,622.9
2022-08-18T01:59:59.127Z,622.6
2022-08-18T02:01:01.329Z,622.7
2022-08-18T02:02:03.911Z,622.4
2022-08-18T02:03:06.388Z,622
2022-08-18T02:05:13.863Z,622
2022-08-18T02:08:33.993Z,621.9
2022-08-18T02:09:36.407Z,622.3
2022-08-18T02:10:38.607Z,622.3
2022-08-18T02:11:40.801Z,622.4
2022-08-18T02:12:43.017Z,622.3
2022-08-18T02:13:45.511Z,622.5
2022-08-18T02:14:48.618Z,622.5
2022-08-18T02:15:51.856Z,622.5
2022-08-18T02:18:02.089Z,621.7
2022-08-18T02:19:04.002Z,621.7
2022-08-18T02:20:05.659Z,621.8
2022-08-18T02:22:14.109Z,622.2
2022-08-18T02:23:15.741Z,621.9
2022-08-18T02:24:17.939Z,622.4
2022-08-18T02:25:20.133Z,622.4
2022-08-18T02:26:22.636Z,622
2022-08-18T02:27:24.852Z,622.6
2022-08-18T02:29:31.798Z,623
2022-08-18T02:30:33.728Z,622.9
2022-08-18T02:31:36.223Z,623.3
2022-08-18T02:32:38.156Z,623
2022-08-18T02:34:45.759Z,623
2022-08-18T02:35:47.940Z,623
2022-08-18T02:36:50.419Z,622.2
2022-08-18T02:40:03.060Z,623.2
2022-08-18T02:41:05.306Z,623.5
2022-08-18T02:42:07.233Z,623.6
2022-08-18T02:43:09.706Z,623.5
2022-08-18T02:44:12.195Z,623.7
2022-08-18T02:45:13.453Z,623.8
2022-08-18T02:46:15.683Z,624.1
2022-08-18T02:47:17.895Z,624.4
2022-08-18T02:48:19.920Z,624.6
2022-08-18T02:49:22.195Z,624.9
2022-08-18T02:50:24.467Z,625
2022-08-18T02:51:27.785Z,624.8
2022-08-18T02:52:30.016Z,625.2
2022-08-18T02:53:31.945Z,625.3
2022-08-18T02:54:34.128Z,625.7
2022-08-18T02:55:35.768Z,625.3
2022-08-18T02:57:42.406Z,624.5
2022-08-18T02:58:44.317Z,624.4
2022-08-18T03:00:51.508Z,623.4
2022-08-18T03:01:54.200Z,624.1
2022-08-18T03:02:55.913Z,624.3
2022-08-18T03:03:58.541Z,624.3
2022-08-18T03:05:01.025Z,624.4
2022-08-18T03:06:03.243Z,624.4
2022-08-18T03:07:05.797Z,624.6
2022-08-18T03:08:07.992Z,624.4
2022-08-18T03:09:10.495Z,624
2022-08-18T03:11:17.698Z,624
2022-08-18T03:12:19.914Z,624.2
2022-08-18T03:13:22.392Z,624.5
2022-08-18T03:14:24.289Z,623.9
2022-08-18T03:15:29.517Z,623.9
2022-08-18T03:16:32.006Z,624.4
2022-08-18T03:17:34.485Z,624.6
2022-08-18T03:18:36.686Z,624.8
2022-08-18T03:19:38.332Z,624.8
2022-08-18T03:20:43.695Z,625.5
2022-08-18T03:21:47.274Z,625.1
2022-08-18T03:22:51.776Z,625.5
2022-08-18T03:24:58.456Z,626.1
2022-08-18T03:26:00.660Z,626.4
2022-08-18T03:27:03.260Z,627.1
2022-08-18T03:28:05.463Z,627.1
2022-08-18T03:29:07.946Z,627.5
2022-08-18T03:31:14.866Z,627.4
2022-08-18T03:32:16.763Z,627.4
2022-08-18T03:33:18.401Z,627.4
2022-08-18T03:34:21.089Z,627.5
2022-08-18T03:35:22.733Z,627.4
2022-08-18T03:36:24.933Z,627.4
2022-08-18T03:37:27.138Z,627.3
2022-08-18T03:38:29.333Z,627.3
2022-08-18T03:39:31.903Z,627.4
2022-08-18T03:40:33.849Z,627.5
2022-08-18T03:42:41.328Z,627.8
2022-08-18T03:44:48.540Z,627.5
2022-08-18T03:45:50.480Z,627.1
2022-08-18T03:46:52.963Z,627.1
2022-08-18T03:47:55.451Z,627.7
2022-08-18T03:48:58.038Z,628
2022-08-18T03:50:00.242Z,628.1
2022-08-18T03:52:07.445Z,628.2
2022-08-18T03:53:09.922Z,628
2022-08-18T03:54:12.138Z,628
2022-08-18T03:55:14.616Z,628.1
2022-08-18T03:57:21.804Z,628
2022-08-18T03:58:24.022Z,627.6
2022-08-18T03:59:26.270Z,627.2
2022-08-18T04:00:28.517Z,627.2
2022-08-18T04:01:30.794Z,627
2022-08-18T04:02:32.734Z,627.1
2022-08-18T04:03:34.766Z,627.2
2022-08-18T04:05:43.896Z,627.1
2022-08-18T04:06:46.375Z,627.3
2022-08-18T04:07:48.867Z,627.5
2022-08-18T04:08:51.336Z,627.3
2022-08-18T04:09:53.549Z,627.6
2022-08-18T04:10:55.731Z,627.7
2022-08-18T04:11:58.220Z,627.6
2022-08-18T04:13:00.420Z,627.9
2022-08-18T04:14:03.907Z,627.7
2022-08-18T04:15:06.400Z,628.1
2022-08-18T04:16:08.897Z,628
2022-08-18T04:17:11.098Z,628.5
2022-08-18T04:18:13.882Z,628.9
2022-08-18T04:20:20.809Z,629.6
2022-08-18T04:21:23.008Z,629.6
2022-08-18T04:22:25.372Z,629.8
2022-08-18T04:23:27.311Z,630
2022-08-18T04:25:35.400Z,629.7
2022-08-18T04:26:37.874Z,629.9
2022-08-18T04:27:39.262Z,629.5
2022-08-18T04:28:41.191Z,629.4
2022-08-18T04:29:43.393Z,629.3
2022-08-18T04:30:45.346Z,629.7
2022-08-18T04:31:47.843Z,629.5
2022-08-18T04:32:50.316Z,629.9
2022-08-18T04:33:52.246Z,629.1
2022-08-18T04:36:00.976Z,629.3
2022-08-18T04:37:03.219Z,629.4
2022-08-18T04:38:04.858Z,629.3
2022-08-18T04:39:06.794Z,629.3
2022-08-18T04:40:09.623Z,629.2
2022-08-18T04:41:16.251Z,629.1
2022-08-18T04:42:18.773Z,629.6
2022-08-18T04:43:21.003Z,629.8
2022-08-18T04:44:23.494Z,629.8
2022-08-18T04:45:25.710Z,630.3
2022-08-18T04:46:27.917Z,630.1
2022-08-18T04:47:30.989Z,630.3
2022-08-18T04:48:33.956Z,630.3
2022-08-18T04:49:35.885Z,630.3
2022-08-18T04:50:37.807Z,629.8
2022-08-18T04:52:45.025Z,629.5
2022-08-18T04:53:46.949Z,629.4
2022-08-18T04:54:49.146Z,629
2022-08-18T04:55:50.785Z,628.3
2022-08-18T04:56:53.289Z,627.9
2022-08-18T04:57:56.000Z,627.2
2022-08-18T04:58:57.939Z,627.2
2022-08-18T04:59:59.858Z,626.9
2022-08-18T05:01:02.262Z,627.1
2022-08-18T05:02:04.788Z,626.7
2022-08-18T05:03:06.998Z,627.1
2022-08-18T05:04:08.945Z,627.5
2022-08-18T05:05:11.190Z,627.3
2022-08-18T05:06:13.451Z,627.1
2022-08-18T05:07:17.554Z,626.9
2022-08-18T05:08:20.037Z,627.3
2022-08-18T05:10:26.953Z,627.4
2022-08-18T05:11:29.443Z,627.7
2022-08-18T05:12:31.352Z,627.6
2022-08-18T05:13:33.557Z,627.7
2022-08-18T05:14:35.203Z,627.8
2022-08-18T05:18:53.702Z,626.4
2022-08-18T05:19:56.914Z,625.6
2022-08-18T05:23:16.356Z,625.1
2022-08-18T05:24:18.281Z,625.2
2022-08-18T05:25:20.478Z,624.7
2022-08-18T05:26:22.392Z,624.1
2022-08-18T05:27:24.602Z,623.8
2022-08-18T05:28:27.103Z,623.2
2022-08-18T05:30:34.037Z,622.8
2022-08-18T05:31:36.243Z,622.7
2022-08-18T05:33:43.463Z,622.6
2022-08-18T05:34:45.665Z,622.4
2022-08-18T05:35:47.300Z,622.8
2022-08-18T05:36:49.290Z,622.7
2022-08-18T05:37:52.100Z,623.2
2022-08-18T05:38:54.437Z,623.4
2022-08-18T05:39:58.628Z,622.7
2022-08-18T05:41:00.867Z,622.8
2022-08-18T05:42:02.802Z,622.7
2022-08-18T05:43:05.016Z,622.8
2022-08-18T05:44:07.232Z,622.8
2022-08-18T05:45:09.144Z,623.1
2022-08-18T05:46:11.350Z,623
2022-08-18T05:47:13.563Z,623.3
2022-08-18T05:48:15.748Z,623.1
2022-08-18T05:49:18.226Z,623
2022-08-18T05:50:20.157Z,622.6
2022-08-18T05:51:22.059Z,623.1
2022-08-18T05:52:23.991Z,623.1
2022-08-18T05:54:32.136Z,622.8
2022-08-18T05:55:33.802Z,622.5
2022-08-18T05:56:36.025Z,622.5
2022-08-18T05:57:37.664Z,622.4
2022-08-18T05:58:39.655Z,622.3
2022-08-18T05:59:42.138Z,622.7
2022-08-18T06:00:44.619Z,622.5
2022-08-18T06:01:46.670Z,622.7
2022-08-18T06:02:49.348Z,622.5
2022-08-18T06:03:51.314Z,622.6
2022-08-18T06:04:53.955Z,622.3
2022-08-18T06:05:56.077Z,622.3
2022-08-18T06:06:58.565Z,622
2022-08-18T06:08:00.491Z,621.9
2022-08-18T06:09:02.713Z,621.6
2022-08-18T06:10:05.235Z,621.5
2022-08-18T06:12:12.462Z,621.6
2022-08-18T06:13:14.937Z,621.6
2022-08-18T06:14:16.846Z,621.6
2022-08-18T06:15:18.503Z,621.5
2022-08-18T06:16:20.725Z,622
2022-08-18T06:17:22.693Z,621.4
2022-08-18T06:18:24.943Z,621.5
2022-08-18T06:19:26.633Z,621.3
2022-08-18T06:20:29.235Z,621.2
2022-08-18T06:23:43.438Z,621.3
2022-08-18T06:24:45.650Z,621.4
2022-08-18T06:25:47.584Z,621.7
2022-08-18T06:26:50.075Z,621.2
2022-08-18T06:27:53.954Z,621.2
2022-08-18T06:28:56.200Z,621.3
2022-08-18T06:29:59.636Z,621.4
2022-08-18T06:31:02.143Z,621.3
2022-08-18T06:32:04.414Z,621.6
2022-08-18T06:33:06.604Z,621.8
2022-08-18T06:34:08.522Z,622.1
2022-08-18T06:35:11.001Z,622.4
2022-08-18T06:37:20.308Z,622.2
2022-08-18T06:38:22.527Z,622.6
2022-08-18T06:39:24.477Z,622.6
2022-08-18T06:40:27.063Z,623.3
2022-08-18T06:43:41.764Z,623.3
2022-08-18T06:44:43.976Z,623.5
2022-08-18T06:45:46.457Z,623
2022-08-18T06:46:48.977Z,622.7
2022-08-18T06:47:51.976Z,622.5
2022-08-18T06:48:54.522Z,622.2
2022-08-18T06:49:56.474Z,622
2022-08-18T06:50:58.144Z,621.7
2022-08-18T06:52:00.086Z,621.6
2022-08-18T06:53:02.074Z,621.8
2022-08-18T06:54:04.006Z,622.3
2022-08-18T06:55:05.397Z,622.9
2022-08-18T06:57:12.597Z,623.3
2022-08-18T06:58:14.501Z,623.6
2022-08-18T06:59:16.754Z,624.2
2022-08-18T07:00:19.531Z,624.2
2022-08-18T07:01:22.198Z,624.3
2022-08-18T07:02:24.461Z,624.3
2022-08-18T07:03:26.943Z,624.1
2022-08-18T07:04:29.152Z,623.9
2022-08-18T07:05:31.705Z,624
2022-08-18T07:06:33.366Z,624.1
2022-08-18T07:08:40.846Z,624
2022-08-18T07:09:43.048Z,624.1
2022-08-18T07:10:44.978Z,623.8
2022-08-18T07:11:47.456Z,624
2022-08-18T07:12:49.670Z,623.6
2022-08-18T07:14:56.881Z,624
2022-08-18T07:15:59.422Z,623.7
2022-08-18T07:17:02.087Z,623.9
2022-08-18T07:18:04.569Z,623.7
2022-08-18T07:19:06.774Z,624.3
2022-08-18T07:20:08.989Z,624.1
2022-08-18T07:21:10.633Z,624.1
2022-08-18T07:22:12.858Z,624.3
2022-08-18T07:23:14.812Z,624.3
2022-08-18T07:25:21.180Z,624.8
2022-08-18T07:26:22.816Z,625.1
2022-08-18T07:27:25.330Z,624.9
2022-08-18T07:28:28.466Z,625.4
2022-08-18T07:29:30.144Z,625.3
2022-08-18T07:30:32.069Z,625.3
2022-08-18T07:31:34.005Z,625.8
2022-08-18T07:32:36.516Z,625.7
2022-08-18T07:33:38.176Z,625
2022-08-18T07:34:40.105Z,625.2
2022-08-18T07:35:42.609Z,625.5
2022-08-18T07:36:44.527Z,625.2
2022-08-18T07:37:47.061Z,625.3
2022-08-18T07:38:49.569Z,625.2
2022-08-18T07:39:52.446Z,625.6
2022-08-18T07:40:54.696Z,625.4
2022-08-18T07:41:56.918Z,625.8
2022-08-18T07:44:03.834Z,625.4
2022-08-18T07:45:06.331Z,625.9
2022-08-18T07:46:08.839Z,625.7
2022-08-18T07:47:10.765Z,625.6
2022-08-18T07:53:41.984Z,625
2022-08-18T07:55:49.501Z,625.5
2022-08-18T07:56:51.706Z,625.6
2022-08-18T07:57:54.967Z,625.6
2022-08-18T07:58:57.316Z,625.6
2022-08-18T07:59:59.809Z,625.5
2022-08-18T08:01:02.726Z,625.1
2022-08-18T08:02:05.139Z,625.1
2022-08-18T08:03:07.360Z,624.3
2022-08-18T08:05:16.551Z,624.1
2022-08-18T08:06:18.484Z,624.2
2022-08-18T08:08:27.344Z,624.8
2022-08-18T08:09:29.560Z,624.6
2022-08-18T08:10:32.100Z,624.6
2022-08-18T08:11:34.610Z,624.7
2022-08-18T08:12:37.137Z,624.9
2022-08-18T08:14:44.436Z,624.5
2022-08-18T08:15:46.944Z,624.5
2022-08-18T08:16:49.154Z,623.9
2022-08-18T08:18:56.105Z,623.4
2022-08-18T08:21:03.655Z,623
2022-08-18T08:22:05.892Z,622.6
2022-08-18T08:23:08.151Z,622.6
2022-08-18T08:24:10.412Z,622.7
2022-08-18T08:26:17.693Z,622.3
2022-08-18T08:27:20.185Z,622.9
2022-08-18T08:28:22.772Z,622.8
2022-08-18T08:29:24.796Z,623.2
2022-08-18T08:30:30.063Z,623.2
2022-08-18T08:32:38.261Z,624.5
2022-08-18T08:33:40.536Z,624.9
2022-08-18T08:34:42.929Z,625.3
2022-08-18T08:36:50.202Z,625.6
2022-08-18T08:38:59.226Z,626.3
2022-08-18T08:40:02.168Z,626.5
2022-08-18T08:41:03.894Z,626.2
2022-08-18T08:43:11.094Z,626.2
2022-08-18T08:44:13.338Z,625.8
2022-08-18T08:45:15.579Z,626.1
2022-08-18T08:46:17.521Z,626.2
2022-08-18T08:48:25.059Z,626.2
2022-08-18T08:49:27.360Z,626.3
2022-08-18T08:50:29.904Z,626.6
2022-08-18T08:51:33.088Z,626.2
2022-08-18T08:52:35.315Z,626.5
2022-08-18T08:53:37.851Z,626.2
2022-08-18T08:54:40.339Z,626.2
2022-08-18T08:55:42.588Z,625.7
2022-08-18T08:56:44.812Z,625.7
2022-08-18T08:57:47.094Z,625.6
2022-08-18T08:58:49.336Z,626.1
2022-08-18T08:59:51.277Z,626.8
2022-08-18T09:00:53.298Z,627.8
2022-08-18T09:01:55.785Z,628.4
2022-08-18T09:02:58.099Z,628
2022-08-18T09:04:00.069Z,628.3
2022-08-18T09:06:07.618Z,628.1
2022-08-18T09:07:10.122Z,628.3
2022-08-18T09:08:12.648Z,628.7
2022-08-18T09:09:14.869Z,628.6
2022-08-18T09:10:16.881Z,629.2
2022-08-18T09:11:18.810Z,628.8
2022-08-18T09:12:20.767Z,628.9
2022-08-18T09:14:28.270Z,628.9
2022-08-18T09:15:29.620Z,629.4
2022-08-18T09:16:33.354Z,629.5
2022-08-18T09:17:36.906Z,629.4
2022-08-18T09:18:39.138Z,629
2022-08-18T09:19:41.047Z,628.8
2022-08-18T09:21:47.977Z,627.4
2022-08-18T09:22:50.320Z,627
2022-08-18T09:23:52.552Z,626.9
2022-08-18T09:24:54.469Z,627.4
2022-08-18T09:25:56.947Z,627.4
2022-08-18T09:26:59.165Z,628.3
2022-08-18T09:29:05.795Z,629.5
2022-08-18T09:30:10.664Z,629.8
2022-08-18T09:31:12.371Z,629.9
2022-08-18T09:33:24.405Z,630.5
2022-08-18T09:34:27.202Z,630.5
2022-08-18T09:35:28.901Z,630.4
2022-08-18T09:36:32.633Z,630.7
2022-08-18T09:37:34.864Z,630.6
2022-08-18T09:38:38.093Z,630.4
2022-08-18T09:39:41.929Z,629.8
2022-08-18T09:41:50.988Z,629.1
2022-08-18T09:42:52.684Z,628.9
2022-08-18T09:43:54.888Z,629
2022-08-18T09:44:59.360Z,629.2
2022-08-18T09:46:03.712Z,629.2
2022-08-18T09:47:06.168Z,630
2022-08-18T09:51:25.057Z,630.1
2022-08-18T09:52:28.034Z,629.7
2022-08-18T09:53:31.051Z,629.6
2022-08-18T09:54:34.815Z,629.8
2022-08-18T09:55:37.876Z,629.2
2022-08-18T09:57:47.466Z,629
2022-08-18T09:58:52.594Z,629.2
2022-08-18T09:59:55.253Z,629.7
2022-08-18T10:00:57.922Z,629.5
2022-08-18T10:02:00.942Z,629.6
2022-08-18T10:03:09.578Z,629.7
2022-08-18T10:04:15.289Z,629.9
2022-08-18T10:05:17.867Z,628.9
2022-08-18T10:07:29.516Z,629.1
2022-08-18T10:08:36.582Z,629
2022-08-18T10:12:56.613Z,628.5
2022-08-18T10:13:59.120Z,628.3
2022-08-18T10:15:01.599Z,627.7
2022-08-18T10:18:16.701Z,627.6
2022-08-18T10:19:18.656Z,627.6
2022-08-18T10:24:45.681Z,628.3
2022-08-18T10:25:49.459Z,628.3
2022-08-18T10:27:57.036Z,628
2022-08-18T10:28:59.258Z,627.9
2022-08-18T10:30:01.745Z,627.8
2022-08-18T10:36:32.551Z,628.4
2022-08-18T10:37:35.020Z,628.6
2022-08-18T10:40:53.102Z,629.5
2022-08-18T10:43:01.643Z,630.4
2022-08-18T10:45:11.545Z,629.7
2022-08-18T10:49:29.689Z,630.1
2022-08-18T10:50:32.688Z,630.2
2022-08-18T10:53:47.622Z,630.7
2022-08-18T10:55:56.702Z,630.7
2022-08-18T10:57:04.330Z,630.6
2022-08-18T10:58:07.600Z,630.6
2022-08-18T11:00:17.337Z,631.1
2022-08-18T11:01:22.364Z,631.3
2022-08-18T11:02:24.788Z,631.6
2022-08-18T11:05:43.022Z,632.4
2022-08-18T11:06:46.112Z,632.6
2022-08-18T11:12:42.058Z,633.1
2022-08-18T11:14:52.957Z,634.3
2022-08-18T11:15:56.292Z,634.6
2022-08-18T11:16:59.468Z,634.4
2022-08-18T11:18:04.924Z,634
2022-08-18T11:19:14.049Z,633.2
2022-08-18T11:20:21.005Z,633.8
2022-08-18T11:21:24.003Z,633.6
2022-08-18T11:23:32.956Z,635.5
2022-08-18T11:24:40.799Z,636.1
2022-08-18T11:25:45.006Z,636.8
2022-08-18T11:27:54.479Z,636.7
2022-08-18T11:28:56.424Z,636.9
2022-08-18T11:29:59.666Z,636.1
2022-08-18T11:34:21.510Z,637.4
2022-08-18T11:36:31.583Z,637.7
2022-08-18T11:39:44.226Z,637.8
2022-08-18T11:41:56.628Z,637.2
2022-08-18T11:44:09.538Z,637.6
2022-08-18T11:45:12.252Z,638
2022-08-18T11:50:38.118Z,641
2022-08-18T11:54:59.834Z,641.8
2022-08-18T11:58:14.889Z,643.1
2022-08-18T11:59:19.378Z,643.4
2022-08-18T12:01:26.725Z,644.1
2022-08-18T12:02:33.882Z,643.9
2022-08-18T12:03:36.484Z,644.7
2022-08-18T12:04:39.629Z,645.1
2022-08-18T12:06:48.890Z,644.3
2022-08-18T12:16:37.792Z,644.9
2022-08-18T12:17:40.523Z,644.4
2022-08-18T12:18:44.573Z,644
2022-08-18T12:19:53.937Z,642.9
2022-08-18T12:21:01.700Z,643.1
2022-08-18T12:27:34.194Z,644.5
2022-08-18T12:28:36.685Z,644.6
2022-08-18T12:30:47.645Z,644.7
2022-08-18T12:31:50.959Z,645
2022-08-18T12:36:08.177Z,644.3
2022-08-18T12:38:19.554Z,643.7
2022-08-18T12:39:25.399Z,643.7
2022-08-18T12:40:28.208Z,643.7
2022-08-18T12:41:32.277Z,643.7
2022-08-18T12:44:46.576Z,644
2022-08-18T12:45:49.063Z,644.5
2022-08-18T12:46:51.788Z,644.2
2022-08-18T12:51:15.777Z,642.4
2022-08-18T12:56:43.134Z,642.7
2022-08-18T12:58:50.523Z,642.7
2022-08-18T13:00:59.605Z,642.9
2022-08-18T13:02:02.728Z,643.3
2022-08-18T13:03:05.252Z,643.1
2022-08-18T13:05:14.452Z,643.1
2022-08-18T13:06:20.331Z,643
2022-08-18T13:07:24.502Z,643.3
2022-08-18T13:11:43.415Z,644.6
2022-08-18T13:12:45.377Z,644.7
2022-08-18T13:14:52.848Z,645.1
2022-08-18T13:17:00.069Z,645.2
2022-08-18T13:18:05.610Z,645.6
2022-08-18T13:20:15.153Z,646.1
2022-08-18T13:21:18.489Z,646.4
2022-08-18T13:23:27.356Z,647
2022-08-18T13:24:29.771Z,647.5
2022-08-18T13:26:36.692Z,647.6
2022-08-18T13:30:57.709Z,647.3
2022-08-18T13:32:00.859Z,647.7
2022-08-18T13:36:19.388Z,647.8
2022-08-18T13:37:25.009Z,647.1
2022-08-18T13:38:31.412Z,647.2
2022-08-18T13:43:54.280Z,647.7
2022-08-18T13:47:13.709Z,647.8
2022-08-18T13:48:15.920Z,647.3
2022-08-18T13:51:30.652Z,647.9
2022-08-18T13:54:43.572Z,648.2
2022-08-18T13:55:47.048Z,648.4
2022-08-18T13:57:56.884Z,648.7
2022-08-18T13:58:59.969Z,649.1
2022-08-18T14:00:02.374Z,649.2
2022-08-18T14:02:11.121Z,649.1
2022-08-18T14:06:29.710Z,649.9
2022-08-18T14:09:43.260Z,651.8
2022-08-18T14:11:53.154Z,652
2022-08-18T14:15:06.120Z,652.3
2022-08-18T14:17:13.335Z,652
2022-08-18T14:21:30.551Z,652.6
2022-08-18T14:25:49.789Z,652.7
2022-08-18T14:26:54.073Z,652.8
2022-08-18T14:30:06.874Z,653.2
2022-08-18T14:31:10.017Z,653
2022-08-18T14:36:32.062Z,653.3
2022-08-18T14:37:38.188Z,653.2
2022-08-18T14:38:41.318Z,653.3
2022-08-18T14:40:48.802Z,653.1
2022-08-18T14:42:56.875Z,653.7
2022-08-18T14:48:35.999Z,653.7
2022-08-18T14:51:49.257Z,653.5
2022-08-18T14:52:53.979Z,653.6
2022-08-18T14:53:57.428Z,653.3
2022-08-18T14:54:59.362Z,653.7
2022-08-18T14:56:02.012Z,653.6
2022-08-18T14:57:05.724Z,653.6
2022-08-18T14:58:11.380Z,653.5
2022-08-18T15:02:35.562Z,654.4
2022-08-18T15:03:39.276Z,654.5
2022-08-18T15:05:47.397Z,654.5
2022-08-18T15:09:03.281Z,654.8
2022-08-18T15:12:17.702Z,655.1
2022-08-18T15:17:42.664Z,655
2022-08-18T15:18:45.474Z,655
2022-08-18T15:20:53.311Z,654.8
2022-08-18T15:21:59.224Z,654.5
2022-08-18T15:25:14.233Z,654.3
2022-08-18T15:28:31.308Z,653.9
2022-08-18T15:29:33.780Z,653.8
2022-08-18T15:32:43.731Z,653.3
2022-08-18T15:34:52.823Z,652.8
2022-08-18T15:35:55.740Z,653
2022-08-18T15:39:11.562Z,653.2
2022-08-18T15:41:23.775Z,653.1
2022-08-18T15:42:28.391Z,653.5
2022-08-18T15:44:38.584Z,653.2
2022-08-18T15:47:52.453Z,653.6
2022-08-18T15:48:54.967Z,654.2
2022-08-18T15:53:16.984Z,655.1
2022-08-18T15:55:27.482Z,655.2
2022-08-18T15:56:29.673Z,656
2022-08-18T15:58:37.760Z,656.7
2022-08-18T15:59:42.059Z,657.2
2022-08-18T16:00:48.232Z,657.5
2022-08-18T16:01:52.175Z,658
2022-08-18T16:02:55.326Z,658.1
2022-08-18T16:03:59.172Z,657.7
2022-08-18T16:07:13.440Z,657.7
2022-08-18T16:08:16.148Z,657.3
2022-08-18T16:09:18.360Z,657.6
2022-08-18T16:10:20.844Z,657.6
2022-08-18T16:12:28.317Z,657.5
2022-08-18T16:13:30.502Z,657.8
2022-08-18T16:14:32.437Z,657.5
2022-08-18T16:16:39.641Z,657.1
2022-08-18T16:17:42.120Z,656.9
2022-08-18T16:18:44.603Z,657
2022-08-18T16:19:47.099Z,657.3
2022-08-18T16:21:56.723Z,657.5
2022-08-18T16:22:58.930Z,657.7
2022-08-18T16:24:01.134Z,657.5
2022-08-18T16:25:03.075Z,657.1
2022-08-18T16:26:06.605Z,656.7
2022-08-18T16:27:08.912Z,656.3
2022-08-18T16:28:10.543Z,656.1
2022-08-18T16:29:13.042Z,656.4
2022-08-18T16:30:15.518Z,656.5
2022-08-18T16:31:17.731Z,656
2022-08-18T16:32:20.242Z,656
2022-08-18T16:33:22.741Z,656.6
2022-08-18T16:34:30.488Z,656.6
2022-08-18T16:35:34.228Z,656.8
2022-08-18T16:36:36.435Z,656.4
2022-08-18T16:37:38.914Z,656.5
2022-08-18T16:38:41.874Z,656.4
2022-08-18T16:39:44.056Z,656.4
2022-08-18T16:40:46.719Z,656.2
2022-08-18T16:41:48.720Z,656.3
2022-08-18T16:43:55.949Z,656.9
2022-08-18T16:44:58.157Z,656.8
2022-08-18T16:46:02.795Z,656.5
2022-08-18T16:47:05.795Z,656.7
2022-08-18T16:48:08.140Z,657
2022-08-18T16:49:10.697Z,657
2022-08-18T16:50:13.211Z,657.2
2022-08-18T16:51:15.684Z,657.2
2022-08-18T16:52:19.773Z,656.8
2022-08-18T16:53:22.295Z,656.8
2022-08-18T16:54:24.834Z,656.4
2022-08-18T16:55:27.314Z,656.8
2022-08-18T16:56:29.837Z,656.5
2022-08-18T16:58:37.078Z,657
2022-08-18T16:59:39.553Z,657
2022-08-18T17:00:42.079Z,657.3
2022-08-18T17:02:49.799Z,656.9
2022-08-18T17:03:52.000Z,656.9
2022-08-18T17:04:54.520Z,656.2
2022-08-18T17:05:57.016Z,655.8
2022-08-18T17:06:59.214Z,655.4
2022-08-18T17:08:01.710Z,654.4
2022-08-18T17:10:09.249Z,652.6
2022-08-18T17:11:11.452Z,651.5
2022-08-18T17:12:13.932Z,650.4
2022-08-18T17:13:16.405Z,650.4
2022-08-18T17:15:23.607Z,649.1
2022-08-18T17:16:25.508Z,648.5
2022-08-18T17:17:27.716Z,648.7
2022-08-18T17:18:30.206Z,648.1
2022-08-18T17:19:32.127Z,647.7
2022-08-18T17:20:34.850Z,649.1
2022-08-18T17:21:37.056Z,649.2
2022-08-18T17:22:39.534Z,649.1
2022-08-18T17:23:42.557Z,649.3
2022-08-18T17:25:51.722Z,648.8
2022-08-18T17:26:55.024Z,648.1
2022-08-18T17:27:57.502Z,647.7
2022-08-18T17:28:59.704Z,647.6
2022-08-18T17:30:01.910Z,647.7
2022-08-18T17:31:04.106Z,647.9
2022-08-18T17:32:06.286Z,647.3
2022-08-18T17:33:08.482Z,647.2
2022-08-18T17:35:15.955Z,647.2
2022-08-18T17:36:18.436Z,647.3
2022-08-18T17:37:20.375Z,647.1
2022-08-18T17:38:22.860Z,646.9
2022-08-18T17:39:25.333Z,646.4
2022-08-18T17:41:33.277Z,646
2022-08-18T17:45:49.025Z,645.7
2022-08-18T17:46:50.942Z,644.8
2022-08-18T17:47:53.954Z,645.2
2022-08-18T17:48:56.151Z,645
2022-08-18T17:51:03.654Z,644.5
2022-08-18T17:52:06.715Z,644.4
2022-08-18T17:53:09.199Z,644.5
2022-08-18T17:54:11.510Z,644.4
2022-08-18T17:56:19.001Z,644.3
2022-08-18T17:57:20.905Z,644.4
2022-08-18T17:58:23.106Z,644.7
2022-08-18T18:00:30.311Z,644.9
2022-08-18T18:01:33.379Z,645.1
2022-08-18T18:02:35.922Z,644.9
2022-08-18T18:04:45.419Z,645.8
2022-08-18T18:05:47.325Z,645.8
2022-08-18T18:07:57.133Z,645.5
2022-08-18T18:08:59.610Z,645.4
2022-08-18T18:10:01.869Z,644.9
2022-08-18T18:12:09.082Z,644.8
2022-08-18T18:13:11.569Z,644.7
2022-08-18T18:14:15.357Z,644.4
2022-08-18T18:15:18.928Z,644.2
2022-08-18T18:16:21.427Z,644.1
2022-08-18T18:17:23.629Z,644
2022-08-18T18:18:26.116Z,643.7
2022-08-18T18:19:28.019Z,643.6
2022-08-18T18:20:30.521Z,643.4
2022-08-18T18:22:37.439Z,643.4
2022-08-18T18:23:39.638Z,643.6
2022-08-18T18:24:41.574Z,643.5
2022-08-18T18:25:44.050Z,643.7
2022-08-18T18:26:46.841Z,643.2
2022-08-18T18:28:54.036Z,643.4
2022-08-18T18:29:56.214Z,642.9
2022-08-18T18:30:58.688Z,642.4
2022-08-18T18:32:00.877Z,642.8
2022-08-18T18:33:03.542Z,642.6
2022-08-18T18:34:05.736Z,641.7
2022-08-18T18:35:08.206Z,641.9
2022-08-18T18:36:10.685Z,642
2022-08-18T18:37:13.160Z,642.3
2022-08-18T18:38:17.146Z,642.5
2022-08-18T18:39:19.975Z,642.2
2022-08-18T18:40:22.447Z,642.5